sensor_id;sensor_type;location;lat;lon;timestamp;noise_LAeq;noise_LA_min;noise_LA_max;noise_LA01;noise_LA95
49215;Laerm;45943;53.148;8.204;2023-08-17T00:00:10;40.37;36.70;43.07;;
49215;Laerm;45943;53.148;8.204;2023-08-17T00:02:40;40.24;35.64;43.29;;
49215;Laerm;45943;53.148;8.204;2023-08-17T00:05:06;43.22;37.05;56.94;;
49215;Laerm;45943;53.148;8.204;2023-08-17T00:07:33;41.80;36.70;61.89;;
49215;Laerm;45943;53.148;8.204;2023-08-17T00:09:59;40.08;36.80;42.49;;
49215;Laerm;45943;53.148;8.204;2023-08-17T00:12:25;40.94;36.54;45.90;;
49215;Laerm;45943;53.148;8.204;2023-08-17T00:14:52;39.95;36.26;47.99;;
49215;Laerm;45943;53.148;8.204;2023-08-17T00:17:19;40.65;36.80;52.60;;
49215;Laerm;45943;53.148;8.204;2023-08-17T00:19:45;39.97;36.26;47.00;;
49215;Laerm;45943;53.148;8.204;2023-08-17T00:22:11;39.99;36.19;42.56;;
49215;Laerm;45943;53.148;8.204;2023-08-17T00:24:37;40.01;36.26;42.63;;
49215;Laerm;45943;53.148;8.204;2023-08-17T00:27:03;41.36;36.70;47.12;;
49215;Laerm;45943;53.148;8.204;2023-08-17T00:29:30;40.50;37.05;51.38;;
49215;Laerm;45943;53.148;8.204;2023-08-17T00:31:56;40.91;37.92;46.02;;
49215;Laerm;45943;53.148;8.204;2023-08-17T00:34:22;41.11;35.29;45.18;;
49215;Laerm;45943;53.148;8.204;2023-08-17T00:36:48;55.40;38.65;75.81;;
49215;Laerm;45943;53.148;8.204;2023-08-17T00:39:14;40.86;37.51;44.23;;
49215;Laerm;45943;53.148;8.204;2023-08-17T00:41:40;40.72;36.80;45.36;;
49215;Laerm;45943;53.148;8.204;2023-08-17T00:44:06;40.78;37.72;43.48;;
49215;Laerm;45943;53.148;8.204;2023-08-17T00:46:32;42.12;37.72;47.24;;
49215;Laerm;45943;53.148;8.204;2023-08-17T00:48:59;40.66;36.26;42.82;;
49215;Laerm;45943;53.148;8.204;2023-08-17T00:51:26;42.05;37.72;46.23;;
49215;Laerm;45943;53.148;8.204;2023-08-17T00:53:58;40.89;37.51;45.54;;
49215;Laerm;45943;53.148;8.204;2023-08-17T00:56:25;41.25;37.05;45.11;;
49215;Laerm;45943;53.148;8.204;2023-08-17T00:58:52;43.43;38.12;50.23;;
49215;Laerm;45943;53.148;8.204;2023-08-17T01:01:19;40.58;36.54;43.69;;
49215;Laerm;45943;53.148;8.204;2023-08-17T01:03:45;40.62;36.80;51.03;;
49215;Laerm;45943;53.148;8.204;2023-08-17T01:06:11;44.41;37.51;58.98;;
49215;Laerm;45943;53.148;8.204;2023-08-17T01:08:38;40.82;36.54;45.83;;
49215;Laerm;45943;53.148;8.204;2023-08-17T01:11:20;40.48;37.29;43.48;;
49215;Laerm;45943;53.148;8.204;2023-08-17T01:13:55;40.56;36.80;45.11;;
49215;Laerm;45943;53.148;8.204;2023-08-17T01:16:27;40.28;37.05;43.36;;
49215;Laerm;45943;53.148;8.204;2023-08-17T01:18:57;40.92;37.05;44.28;;
49215;Laerm;45943;53.148;8.204;2023-08-17T01:21:24;41.85;37.72;45.67;;
49215;Laerm;45943;53.148;8.204;2023-08-17T01:23:57;40.89;37.51;45.43;;
49215;Laerm;45943;53.148;8.204;2023-08-17T01:26:24;40.67;36.54;44.95;;
49215;Laerm;45943;53.148;8.204;2023-08-17T01:28:50;41.02;37.29;44.83;;
49215;Laerm;45943;53.148;8.204;2023-08-17T01:31:33;41.19;37.29;45.05;;
49215;Laerm;45943;53.148;8.204;2023-08-17T01:34:10;40.96;37.05;44.91;;
49215;Laerm;45943;53.148;8.204;2023-08-17T01:36:52;41.32;37.72;48.55;;
49215;Laerm;45943;53.148;8.204;2023-08-17T01:39:23;40.95;37.29;43.24;;
49215;Laerm;45943;53.148;8.204;2023-08-17T01:41:52;40.78;36.80;42.95;;
49215;Laerm;45943;53.148;8.204;2023-08-17T01:44:22;40.94;37.05;43.19;;
49215;Laerm;45943;53.148;8.204;2023-08-17T01:46:48;40.72;37.29;43.31;;
49215;Laerm;45943;53.148;8.204;2023-08-17T01:49:14;41.95;37.05;49.44;;
49215;Laerm;45943;53.148;8.204;2023-08-17T01:51:40;41.08;37.29;44.37;;
49215;Laerm;45943;53.148;8.204;2023-08-17T01:54:07;42.40;38.30;49.95;;
49215;Laerm;45943;53.148;8.204;2023-08-17T01:56:33;40.91;37.51;45.83;;
49215;Laerm;45943;53.148;8.204;2023-08-17T01:58:59;40.95;37.51;43.36;;
49215;Laerm;45943;53.148;8.204;2023-08-17T02:01:24;40.96;37.92;43.19;;
49215;Laerm;45943;53.148;8.204;2023-08-17T02:03:51;41.26;38.12;44.20;;
49215;Laerm;45943;53.148;8.204;2023-08-17T02:06:17;41.07;37.95;44.50;;
49215;Laerm;45943;53.148;8.204;2023-08-17T02:08:44;41.22;37.72;44.41;;
49215;Laerm;45943;53.148;8.204;2023-08-17T02:11:10;42.43;37.29;45.83;;
49215;Laerm;45943;53.148;8.204;2023-08-17T02:13:36;44.10;37.92;58.21;;
49215;Laerm;45943;53.148;8.204;2023-08-17T02:16:04;41.39;38.12;44.32;;
49215;Laerm;45943;53.148;8.204;2023-08-17T02:18:30;42.73;39.27;46.33;;
49215;Laerm;45943;53.148;8.204;2023-08-17T02:20:57;44.00;40.83;47.60;;
49215;Laerm;45943;53.148;8.204;2023-08-17T02:23:23;63.01;39.27;76.48;;
49215;Laerm;45943;53.148;8.204;2023-08-17T02:25:49;41.76;38.97;44.23;;
49215;Laerm;45943;53.148;8.204;2023-08-17T02:28:15;41.39;38.48;43.48;;
49215;Laerm;45943;53.148;8.204;2023-08-17T02:30:43;44.47;38.30;58.53;;
49215;Laerm;45943;53.148;8.204;2023-08-17T02:33:09;41.61;38.30;44.04;;
49215;Laerm;45943;53.148;8.204;2023-08-17T02:35:35;41.65;37.72;46.65;;
49215;Laerm;45943;53.148;8.204;2023-08-17T02:38:01;41.67;38.97;44.46;;
49215;Laerm;45943;53.148;8.204;2023-08-17T02:40:27;41.86;38.48;44.54;;
49215;Laerm;45943;53.148;8.204;2023-08-17T02:42:53;41.39;37.72;44.18;;
49215;Laerm;45943;53.148;8.204;2023-08-17T02:45:19;42.49;39.27;48.81;;
49215;Laerm;45943;53.148;8.204;2023-08-17T02:47:45;42.23;39.68;44.75;;
49215;Laerm;45943;53.148;8.204;2023-08-17T02:50:11;42.39;39.68;48.46;;
49215;Laerm;45943;53.148;8.204;2023-08-17T02:52:37;42.23;38.97;48.17;;
49215;Laerm;45943;53.148;8.204;2023-08-17T02:55:06;42.39;38.97;46.40;;
49215;Laerm;45943;53.148;8.204;2023-08-17T02:57:32;41.81;39.12;44.14;;
49215;Laerm;45943;53.148;8.204;2023-08-17T02:59:58;41.85;39.12;44.83;;
49215;Laerm;45943;53.148;8.204;2023-08-17T03:02:24;42.14;39.41;44.32;;
49215;Laerm;45943;53.148;8.204;2023-08-17T03:04:50;42.49;40.41;45.57;;
49215;Laerm;45943;53.148;8.204;2023-08-17T03:07:16;42.39;39.94;45.03;;
49215;Laerm;45943;53.148;8.204;2023-08-17T03:09:42;61.29;40.30;73.19;;
49215;Laerm;45943;53.148;8.204;2023-08-17T03:12:08;43.48;40.83;46.20;;
49215;Laerm;45943;53.148;8.204;2023-08-17T03:14:34;42.71;40.30;44.59;;
49215;Laerm;45943;53.148;8.204;2023-08-17T03:17:00;45.69;40.18;61.27;;
49215;Laerm;45943;53.148;8.204;2023-08-17T03:19:26;43.21;40.41;46.73;;
49215;Laerm;45943;53.148;8.204;2023-08-17T03:21:52;54.50;40.73;71.02;;
49215;Laerm;45943;53.148;8.204;2023-08-17T03:24:17;42.61;39.71;45.61;;
49215;Laerm;45943;53.148;8.204;2023-08-17T03:26:43;42.43;39.81;48.02;;
49215;Laerm;45943;53.148;8.204;2023-08-17T03:29:09;45.13;40.18;58.73;;
49215;Laerm;45943;53.148;8.204;2023-08-17T03:31:35;44.61;40.63;56.27;;
49215;Laerm;45943;53.148;8.204;2023-08-17T03:34:01;45.95;40.52;61.11;;
49215;Laerm;45943;53.148;8.204;2023-08-17T03:36:27;43.35;40.73;65.51;;
49215;Laerm;45943;53.148;8.204;2023-08-17T03:38:53;51.69;41.40;66.62;;
49215;Laerm;45943;53.148;8.204;2023-08-17T03:41:21;48.19;40.73;68.57;;
49215;Laerm;45943;53.148;8.204;2023-08-17T03:43:49;43.21;41.22;46.83;;
49215;Laerm;45943;53.148;8.204;2023-08-17T03:46:15;45.98;40.52;61.49;;
49215;Laerm;45943;53.148;8.204;2023-08-17T03:48:41;43.10;41.03;45.36;;
49215;Laerm;45943;53.148;8.204;2023-08-17T03:51:07;46.05;41.13;60.92;;
49215;Laerm;45943;53.148;8.204;2023-08-17T03:53:33;43.20;41.13;50.40;;
49215;Laerm;45943;53.148;8.204;2023-08-17T03:55:59;43.16;41.13;57.32;;
49215;Laerm;45943;53.148;8.204;2023-08-17T03:58:25;49.71;40.41;71.58;;
49215;Laerm;45943;53.148;8.204;2023-08-17T04:00:58;44.56;40.30;58.33;;
49215;Laerm;45943;53.148;8.204;2023-08-17T04:03:24;43.13;40.83;45.50;;
49215;Laerm;45943;53.148;8.204;2023-08-17T04:05:50;45.05;40.73;57.70;;
49215;Laerm;45943;53.148;8.204;2023-08-17T04:08:16;50.01;41.31;63.69;;
49215;Laerm;45943;53.148;8.204;2023-08-17T04:10:42;47.81;41.31;63.14;;
49215;Laerm;45943;53.148;8.204;2023-08-17T04:13:08;43.72;41.31;50.25;;
49215;Laerm;45943;53.148;8.204;2023-08-17T04:15:34;43.59;41.40;46.14;;
49215;Laerm;45943;53.148;8.204;2023-08-17T04:18:00;43.56;41.31;45.80;;
49215;Laerm;45943;53.148;8.204;2023-08-17T04:20:26;56.12;42.28;73.92;;
49215;Laerm;45943;53.148;8.204;2023-08-17T04:22:52;46.32;41.82;60.13;;
49215;Laerm;45943;53.148;8.204;2023-08-17T04:25:18;47.18;41.98;59.12;;
49215;Laerm;45943;53.148;8.204;2023-08-17T04:27:44;48.50;41.49;63.99;;
49215;Laerm;45943;53.148;8.204;2023-08-17T04:30:11;57.23;41.74;77.78;;
49215;Laerm;45943;53.148;8.204;2023-08-17T04:32:37;49.59;41.49;62.60;;
49215;Laerm;45943;53.148;8.204;2023-08-17T04:35:03;49.56;42.56;62.73;;
49215;Laerm;45943;53.148;8.204;2023-08-17T04:37:29;43.98;42.21;51.77;;
49215;Laerm;45943;53.148;8.204;2023-08-17T04:39:55;53.19;42.13;68.95;;
49215;Laerm;45943;53.148;8.204;2023-08-17T04:42:21;47.26;42.49;59.70;;
49215;Laerm;45943;53.148;8.204;2023-08-17T04:44:47;50.02;42.76;61.01;;
49215;Laerm;45943;53.148;8.204;2023-08-17T04:47:13;48.69;42.89;62.33;;
49215;Laerm;45943;53.148;8.204;2023-08-17T04:49:39;50.83;42.13;66.32;;
49215;Laerm;45943;53.148;8.204;2023-08-17T04:52:05;53.60;42.63;71.46;;
49215;Laerm;45943;53.148;8.204;2023-08-17T04:54:31;48.12;42.95;61.25;;
49215;Laerm;45943;53.148;8.204;2023-08-17T04:56:57;44.04;42.21;47.53;;
49215;Laerm;45943;53.148;8.204;2023-08-17T04:59:23;46.45;42.35;60.54;;
49215;Laerm;45943;53.148;8.204;2023-08-17T05:01:49;50.49;42.56;65.17;;
49215;Laerm;45943;53.148;8.204;2023-08-17T05:04:15;50.53;42.56;64.85;;
49215;Laerm;45943;53.148;8.204;2023-08-17T05:06:41;50.62;42.95;60.40;;
49215;Laerm;45943;53.148;8.204;2023-08-17T05:09:08;55.30;42.69;72.50;;
49215;Laerm;45943;53.148;8.204;2023-08-17T05:11:35;49.12;43.01;61.58;;
49215;Laerm;45943;53.148;8.204;2023-08-17T05:14:01;50.99;43.31;63.49;;
49215;Laerm;45943;53.148;8.204;2023-08-17T05:16:27;51.21;43.01;66.68;;
49215;Laerm;45943;53.148;8.204;2023-08-17T05:18:53;49.02;43.07;59.78;;
49215;Laerm;45943;53.148;8.204;2023-08-17T05:21:19;53.19;43.48;67.89;;
49215;Laerm;45943;53.148;8.204;2023-08-17T05:23:45;54.99;42.06;69.40;;
49215;Laerm;45943;53.148;8.204;2023-08-17T05:26:11;49.71;42.89;62.81;;
49215;Laerm;45943;53.148;8.204;2023-08-17T05:28:37;53.00;43.07;66.95;;
49215;Laerm;45943;53.148;8.204;2023-08-17T05:31:08;52.03;43.19;68.85;;
49215;Laerm;45943;53.148;8.204;2023-08-17T05:33:34;55.57;42.76;72.10;;
49215;Laerm;45943;53.148;8.204;2023-08-17T05:36:00;51.06;43.31;66.53;;
49215;Laerm;45943;53.148;8.204;2023-08-17T05:38:26;51.99;42.69;62.23;;
49215;Laerm;45943;53.148;8.204;2023-08-17T05:40:56;59.71;43.74;75.96;;
49215;Laerm;45943;53.148;8.204;2023-08-17T05:43:22;53.06;43.58;68.99;;
49215;Laerm;45943;53.148;8.204;2023-08-17T05:45:48;54.44;43.25;74.17;;
49215;Laerm;45943;53.148;8.204;2023-08-17T05:48:14;54.03;43.19;67.44;;
49215;Laerm;45943;53.148;8.204;2023-08-17T05:50:43;56.35;44.63;72.02;;
49215;Laerm;45943;53.148;8.204;2023-08-17T05:53:09;51.88;44.63;63.32;;
49215;Laerm;45943;53.148;8.204;2023-08-17T05:55:35;54.71;45.77;70.56;;
49215;Laerm;45943;53.148;8.204;2023-08-17T05:58:02;51.47;44.67;67.79;;
49215;Laerm;45943;53.148;8.204;2023-08-17T06:00:29;51.90;44.23;69.52;;
49215;Laerm;45943;53.148;8.204;2023-08-17T06:02:55;52.85;42.95;64.27;;
49215;Laerm;45943;53.148;8.204;2023-08-17T06:05:29;54.97;43.02;75.51;;
49215;Laerm;45943;53.148;8.204;2023-08-17T06:07:56;54.25;43.53;71.52;;
49215;Laerm;45943;53.148;8.204;2023-08-17T06:10:25;52.07;44.59;62.01;;
49215;Laerm;45943;53.148;8.204;2023-08-17T06:12:55;56.17;44.67;71.33;;
49215;Laerm;45943;53.148;8.204;2023-08-17T06:15:22;48.49;44.50;60.18;;
49215;Laerm;45943;53.148;8.204;2023-08-17T06:17:48;53.43;45.11;67.75;;
49215;Laerm;45943;53.148;8.204;2023-08-17T06:20:17;51.09;44.79;65.84;;
49215;Laerm;45943;53.148;8.204;2023-08-17T06:22:44;55.78;44.99;71.83;;
49215;Laerm;45943;53.148;8.204;2023-08-17T06:25:10;48.41;44.63;58.58;;
49215;Laerm;45943;53.148;8.204;2023-08-17T06:27:36;54.22;45.11;64.34;;
49215;Laerm;45943;53.148;8.204;2023-08-17T06:30:03;51.49;43.94;63.71;;
49215;Laerm;45943;53.148;8.204;2023-08-17T06:32:30;51.95;43.53;63.90;;
49215;Laerm;45943;53.148;8.204;2023-08-17T06:34:56;52.35;43.42;66.68;;
49215;Laerm;45943;53.148;8.204;2023-08-17T06:37:23;50.83;43.79;67.33;;
49215;Laerm;45943;53.148;8.204;2023-08-17T06:39:49;56.97;44.67;74.65;;
49215;Laerm;45943;53.148;8.204;2023-08-17T06:42:15;51.87;44.71;63.15;;
49215;Laerm;45943;53.148;8.204;2023-08-17T06:44:41;51.77;43.74;63.32;;
49215;Laerm;45943;53.148;8.204;2023-08-17T06:47:07;51.90;43.84;63.16;;
49215;Laerm;45943;53.148;8.204;2023-08-17T06:49:34;52.88;43.58;61.99;;
49215;Laerm;45943;53.148;8.204;2023-08-17T06:52:00;54.31;43.99;70.68;;
49215;Laerm;45943;53.148;8.204;2023-08-17T06:54:26;52.46;43.79;63.48;;
49215;Laerm;45943;53.148;8.204;2023-08-17T06:56:52;52.97;43.79;63.31;;
49215;Laerm;45943;53.148;8.204;2023-08-17T06:59:18;49.42;43.89;62.51;;
49215;Laerm;45943;53.148;8.204;2023-08-17T07:01:43;53.66;44.87;68.60;;
49215;Laerm;45943;53.148;8.204;2023-08-17T07:04:09;48.89;42.69;59.50;;
49215;Laerm;45943;53.148;8.204;2023-08-17T07:06:35;47.93;43.01;61.69;;
49215;Laerm;45943;53.148;8.204;2023-08-17T07:09:02;54.48;42.21;70.75;;
49215;Laerm;45943;53.148;8.204;2023-08-17T07:11:31;46.62;41.40;62.35;;
49215;Laerm;45943;53.148;8.204;2023-08-17T07:13:57;47.10;41.40;60.62;;
49215;Laerm;45943;53.148;8.204;2023-08-17T07:16:23;49.02;41.40;59.44;;
49215;Laerm;45943;53.148;8.204;2023-08-17T07:18:49;50.33;41.22;63.30;;
49215;Laerm;45943;53.148;8.204;2023-08-17T07:21:15;54.77;42.76;69.72;;
49215;Laerm;45943;53.148;8.204;2023-08-17T07:23:44;51.40;41.74;62.85;;
49215;Laerm;45943;53.148;8.204;2023-08-17T07:26:10;48.60;41.66;62.33;;
49215;Laerm;45943;53.148;8.204;2023-08-17T07:28:36;46.76;41.40;62.13;;
49215;Laerm;45943;53.148;8.204;2023-08-17T07:31:02;49.95;42.28;62.01;;
49215;Laerm;45943;53.148;8.204;2023-08-17T07:33:28;47.62;41.03;58.80;;
49215;Laerm;45943;53.148;8.204;2023-08-17T07:35:54;46.57;41.22;56.23;;
49215;Laerm;45943;53.148;8.204;2023-08-17T07:38:22;55.27;42.13;74.07;;
49215;Laerm;45943;53.148;8.204;2023-08-17T07:40:48;48.37;42.21;61.72;;
49215;Laerm;45943;53.148;8.204;2023-08-17T07:43:14;56.93;42.82;75.17;;
49215;Laerm;45943;53.148;8.204;2023-08-17T07:45:40;52.17;43.25;63.12;;
49215;Laerm;45943;53.148;8.204;2023-08-17T07:48:06;51.06;42.69;64.82;;
49215;Laerm;45943;53.148;8.204;2023-08-17T07:50:32;52.23;43.31;63.45;;
49215;Laerm;45943;53.148;8.204;2023-08-17T07:52:58;54.94;47.03;69.65;;
49215;Laerm;45943;53.148;8.204;2023-08-17T07:55:26;54.47;46.30;69.75;;
49215;Laerm;45943;53.148;8.204;2023-08-17T07:57:52;57.89;46.35;70.80;;
49215;Laerm;45943;53.148;8.204;2023-08-17T08:00:18;59.55;53.39;71.70;;
49215;Laerm;45943;53.148;8.204;2023-08-17T08:02:44;59.44;52.43;73.26;;
49215;Laerm;45943;53.148;8.204;2023-08-17T08:05:10;54.46;46.62;71.45;;
49215;Laerm;45943;53.148;8.204;2023-08-17T08:07:36;55.57;45.64;70.21;;
49215;Laerm;45943;53.148;8.204;2023-08-17T08:10:02;51.02;44.46;64.86;;
49215;Laerm;45943;53.148;8.204;2023-08-17T08:12:28;53.74;45.11;68.32;;
49215;Laerm;45943;53.148;8.204;2023-08-17T08:14:54;57.28;44.37;71.35;;
49215;Laerm;45943;53.148;8.204;2023-08-17T08:17:20;54.63;44.50;69.97;;
49215;Laerm;45943;53.148;8.204;2023-08-17T08:19:46;55.67;44.14;67.46;;
49215;Laerm;45943;53.148;8.204;2023-08-17T08:22:12;56.92;45.67;65.74;;
49215;Laerm;45943;53.148;8.204;2023-08-17T08:24:38;55.90;44.09;69.46;;
49215;Laerm;45943;53.148;8.204;2023-08-17T08:27:06;51.89;43.36;62.86;;
49215;Laerm;45943;53.148;8.204;2023-08-17T08:29:33;53.65;44.63;64.43;;
49215;Laerm;45943;53.148;8.204;2023-08-17T08:31:59;54.50;45.03;64.81;;
49215;Laerm;45943;53.148;8.204;2023-08-17T08:34:28;53.15;44.83;64.83;;
49215;Laerm;45943;53.148;8.204;2023-08-17T08:36:54;51.26;43.99;62.63;;
49215;Laerm;45943;53.148;8.204;2023-08-17T08:39:20;52.32;43.99;63.00;;
49215;Laerm;45943;53.148;8.204;2023-08-17T08:41:47;58.35;44.95;72.62;;
49215;Laerm;45943;53.148;8.204;2023-08-17T08:44:13;51.45;43.69;64.97;;
49215;Laerm;45943;53.148;8.204;2023-08-17T08:46:40;55.37;42.28;66.00;;
49215;Laerm;45943;53.148;8.204;2023-08-17T08:49:10;54.47;42.42;67.51;;
49215;Laerm;45943;53.148;8.204;2023-08-17T08:51:42;51.99;43.94;68.56;;
49215;Laerm;45943;53.148;8.204;2023-08-17T08:54:13;56.32;43.79;68.77;;
49215;Laerm;45943;53.148;8.204;2023-08-17T08:56:42;53.34;42.89;63.32;;
49215;Laerm;45943;53.148;8.204;2023-08-17T08:59:10;50.91;44.14;62.01;;
49215;Laerm;45943;53.148;8.204;2023-08-17T09:01:38;51.20;43.74;63.53;;
49215;Laerm;45943;53.148;8.204;2023-08-17T09:04:04;52.60;43.58;63.31;;
49215;Laerm;45943;53.148;8.204;2023-08-17T09:06:32;50.60;43.25;66.30;;
49215;Laerm;45943;53.148;8.204;2023-08-17T09:09:00;52.07;43.53;62.11;;
49215;Laerm;45943;53.148;8.204;2023-08-17T09:11:27;53.41;44.18;62.21;;
49215;Laerm;45943;53.148;8.204;2023-08-17T09:13:53;51.95;43.19;64.85;;
49215;Laerm;45943;53.148;8.204;2023-08-17T09:16:20;54.83;42.06;66.98;;
49215;Laerm;45943;53.148;8.204;2023-08-17T09:18:46;49.99;41.98;62.48;;
49215;Laerm;45943;53.148;8.204;2023-08-17T09:21:23;55.74;41.90;72.13;;
49215;Laerm;45943;53.148;8.204;2023-08-17T09:23:53;53.48;43.50;63.95;;
49215;Laerm;45943;53.148;8.204;2023-08-17T09:26:22;59.61;41.98;74.11;;
49215;Laerm;45943;53.148;8.204;2023-08-17T09:28:51;49.38;41.74;68.44;;
49215;Laerm;45943;53.148;8.204;2023-08-17T09:31:20;53.55;42.42;67.27;;
49215;Laerm;45943;53.148;8.204;2023-08-17T09:33:50;52.88;43.79;66.94;;
49215;Laerm;45943;53.148;8.204;2023-08-17T09:36:21;54.64;43.89;64.28;;
49215;Laerm;45943;53.148;8.204;2023-08-17T09:38:52;57.43;42.76;72.52;;
49215;Laerm;45943;53.148;8.204;2023-08-17T09:41:18;56.96;44.23;78.57;;
49215;Laerm;45943;53.148;8.204;2023-08-17T09:43:46;54.21;44.32;65.59;;
49215;Laerm;45943;53.148;8.204;2023-08-17T09:46:12;56.02;44.87;74.80;;
49215;Laerm;45943;53.148;8.204;2023-08-17T09:48:38;53.60;41.58;67.08;;
49215;Laerm;45943;53.148;8.204;2023-08-17T09:51:05;53.37;42.21;62.69;;
49215;Laerm;45943;53.148;8.204;2023-08-17T09:53:35;60.88;43.48;74.98;;
49215;Laerm;45943;53.148;8.204;2023-08-17T09:56:04;60.39;43.36;70.29;;
49215;Laerm;45943;53.148;8.204;2023-08-17T09:58:30;56.43;44.75;69.14;;
49215;Laerm;45943;53.148;8.204;2023-08-17T10:00:58;51.02;41.98;69.27;;
49215;Laerm;45943;53.148;8.204;2023-08-17T10:03:27;53.54;41.74;64.39;;
49215;Laerm;45943;53.148;8.204;2023-08-17T10:06:05;48.60;40.63;61.27;;
49215;Laerm;45943;53.148;8.204;2023-08-17T10:08:47;49.87;40.52;59.68;;
49215;Laerm;45943;53.148;8.204;2023-08-17T10:11:19;48.40;40.73;61.59;;
49215;Laerm;45943;53.148;8.204;2023-08-17T10:13:47;51.51;41.82;66.01;;
49215;Laerm;45943;53.148;8.204;2023-08-17T10:16:26;51.46;41.82;67.13;;
49215;Laerm;45943;53.148;8.204;2023-08-17T10:19:02;50.91;44.46;61.07;;
49215;Laerm;45943;53.148;8.204;2023-08-17T10:21:40;52.01;44.46;64.14;;
49215;Laerm;45943;53.148;8.204;2023-08-17T10:24:09;52.05;47.90;61.01;;
49215;Laerm;45943;53.148;8.204;2023-08-17T10:26:36;56.00;44.32;68.11;;
49215;Laerm;45943;53.148;8.204;2023-08-17T10:29:03;49.44;43.99;60.02;;
49215;Laerm;45943;53.148;8.204;2023-08-17T10:31:29;52.65;44.63;63.24;;
49215;Laerm;45943;53.148;8.204;2023-08-17T10:33:59;57.02;46.98;73.37;;
49215;Laerm;45943;53.148;8.204;2023-08-17T10:36:25;59.36;42.95;75.81;;
49215;Laerm;45943;53.148;8.204;2023-08-17T10:39:44;55.51;43.36;70.19;;
49215;Laerm;45943;53.148;8.204;2023-08-17T10:42:05;57.01;44.91;69.85;;
49215;Laerm;45943;53.148;8.204;2023-08-17T10:44:49;52.87;44.14;64.38;;
49215;Laerm;45943;53.148;8.204;2023-08-17T10:47:19;51.58;38.65;65.51;;
49215;Laerm;45943;53.148;8.204;2023-08-17T10:49:48;53.90;38.97;66.12;;
49215;Laerm;45943;53.148;8.204;2023-08-17T10:52:14;51.23;40.41;68.38;;
49215;Laerm;45943;53.148;8.204;2023-08-17T10:54:42;50.49;38.30;64.18;;
49215;Laerm;45943;53.148;8.204;2023-08-17T10:57:31;49.23;40.30;60.96;;
49215;Laerm;45943;53.148;8.204;2023-08-17T11:02:39;50.70;41.74;65.35;;
49215;Laerm;45943;53.148;8.204;2023-08-17T11:05:06;49.29;41.98;64.79;;
49215;Laerm;45943;53.148;8.204;2023-08-17T11:07:43;51.10;41.49;63.93;;
49215;Laerm;45943;53.148;8.204;2023-08-17T11:12:46;53.80;42.63;66.77;;
49215;Laerm;45943;53.148;8.204;2023-08-17T11:15:12;51.83;39.94;67.41;;
49215;Laerm;45943;53.148;8.204;2023-08-17T11:17:38;49.23;41.22;61.94;;
49215;Laerm;45943;53.148;8.204;2023-08-17T11:20:04;51.02;41.31;68.61;;
49215;Laerm;45943;53.148;8.204;2023-08-17T11:22:31;53.53;41.82;71.19;;
49215;Laerm;45943;53.148;8.204;2023-08-17T11:24:58;53.17;43.99;62.10;;
49215;Laerm;45943;53.148;8.204;2023-08-17T11:27:24;59.39;42.35;76.44;;
49215;Laerm;45943;53.148;8.204;2023-08-17T11:29:51;47.83;41.90;60.79;;
49215;Laerm;45943;53.148;8.204;2023-08-17T11:32:17;55.30;41.74;71.18;;
49215;Laerm;45943;53.148;8.204;2023-08-17T11:34:43;50.41;41.40;62.14;;
49215;Laerm;45943;53.148;8.204;2023-08-17T11:37:12;49.81;41.39;59.92;;
49215;Laerm;45943;53.148;8.204;2023-08-17T11:39:38;51.85;43.13;63.33;;
49215;Laerm;45943;53.148;8.204;2023-08-17T11:42:04;52.09;40.83;62.17;;
49215;Laerm;45943;53.148;8.204;2023-08-17T11:44:30;49.46;39.94;62.82;;
49215;Laerm;45943;53.148;8.204;2023-08-17T11:46:57;50.94;39.55;62.16;;
49215;Laerm;45943;53.148;8.204;2023-08-17T11:49:23;49.82;39.81;62.25;;
49215;Laerm;45943;53.148;8.204;2023-08-17T11:51:51;51.60;39.41;61.00;;
49215;Laerm;45943;53.148;8.204;2023-08-17T11:54:17;49.85;40.73;62.43;;
49215;Laerm;45943;53.148;8.204;2023-08-17T11:56:43;47.96;40.30;59.41;;
49215;Laerm;45943;53.148;8.204;2023-08-17T11:59:10;49.95;39.94;61.13;;
49215;Laerm;45943;53.148;8.204;2023-08-17T12:01:45;51.49;39.55;65.02;;
49215;Laerm;45943;53.148;8.204;2023-08-17T12:04:11;47.99;39.41;63.09;;
49215;Laerm;45943;53.148;8.204;2023-08-17T12:06:43;51.55;40.63;64.23;;
49215;Laerm;45943;53.148;8.204;2023-08-17T12:09:10;51.92;40.18;67.98;;
49215;Laerm;45943;53.148;8.204;2023-08-17T12:11:35;57.90;39.55;72.28;;
49215;Laerm;45943;53.148;8.204;2023-08-17T12:14:08;54.91;39.94;67.22;;
49215;Laerm;45943;53.148;8.204;2023-08-17T12:16:45;54.93;39.55;68.38;;
49215;Laerm;45943;53.148;8.204;2023-08-17T12:19:12;50.32;39.27;64.00;;
49215;Laerm;45943;53.148;8.204;2023-08-17T12:21:40;55.01;40.41;69.62;;
49215;Laerm;45943;53.148;8.204;2023-08-17T12:24:09;56.10;42.73;72.10;;
49215;Laerm;45943;53.148;8.204;2023-08-17T12:26:35;48.60;41.58;60.30;;
49215;Laerm;45943;53.148;8.204;2023-08-17T12:29:04;51.73;42.35;63.49;;
49215;Laerm;45943;53.148;8.204;2023-08-17T12:31:31;52.56;42.49;63.33;;
49215;Laerm;45943;53.148;8.204;2023-08-17T12:33:57;48.87;41.74;62.04;;
49215;Laerm;45943;53.148;8.204;2023-08-17T12:36:23;56.24;41.49;65.87;;
49215;Laerm;45943;53.148;8.204;2023-08-17T12:38:51;49.12;40.83;68.91;;
49215;Laerm;45943;53.148;8.204;2023-08-17T12:41:17;48.74;42.28;62.95;;
49215;Laerm;45943;53.148;8.204;2023-08-17T12:43:43;49.36;39.55;62.27;;
49215;Laerm;45943;53.148;8.204;2023-08-17T12:46:09;49.77;41.66;61.12;;
49215;Laerm;45943;53.148;8.204;2023-08-17T12:48:38;54.66;40.30;71.09;;
49215;Laerm;45943;53.148;8.204;2023-08-17T12:51:04;54.32;41.49;68.48;;
49215;Laerm;45943;53.148;8.204;2023-08-17T12:53:30;53.28;39.94;66.61;;
49215;Laerm;45943;53.148;8.204;2023-08-17T12:55:56;50.52;40.83;63.97;;
49215;Laerm;45943;53.148;8.204;2023-08-17T12:58:22;50.33;39.81;66.48;;
49215;Laerm;45943;53.148;8.204;2023-08-17T13:00:48;49.30;39.68;74.55;;
49215;Laerm;45943;53.148;8.204;2023-08-17T13:03:20;52.24;40.41;66.02;;
49215;Laerm;45943;53.148;8.204;2023-08-17T13:05:46;49.17;40.18;60.50;;
49215;Laerm;45943;53.148;8.204;2023-08-17T13:08:12;50.75;40.73;66.16;;
49215;Laerm;45943;53.148;8.204;2023-08-17T13:10:38;49.81;40.93;64.12;;
49215;Laerm;45943;53.148;8.204;2023-08-17T13:13:03;49.47;41.22;62.20;;
49215;Laerm;45943;53.148;8.204;2023-08-17T13:15:32;51.76;42.28;62.21;;
49215;Laerm;45943;53.148;8.204;2023-08-17T13:17:59;48.46;40.93;60.00;;
49215;Laerm;45943;53.148;8.204;2023-08-17T13:20:25;56.40;43.79;71.17;;
49215;Laerm;45943;53.148;8.204;2023-08-17T13:22:51;49.32;43.07;64.34;;
49215;Laerm;45943;53.148;8.204;2023-08-17T13:25:17;51.05;42.76;60.77;;
49215;Laerm;45943;53.148;8.204;2023-08-17T13:27:43;52.22;43.48;73.02;;
49215;Laerm;45943;53.148;8.204;2023-08-17T13:30:09;51.98;41.74;63.40;;
49215;Laerm;45943;53.148;8.204;2023-08-17T13:32:35;55.45;43.48;70.48;;
49215;Laerm;45943;53.148;8.204;2023-08-17T13:35:05;50.04;41.74;60.45;;
49215;Laerm;45943;53.148;8.204;2023-08-17T13:37:31;51.91;42.15;68.49;;
49215;Laerm;45943;53.148;8.204;2023-08-17T13:39:57;57.84;41.49;75.67;;
49215;Laerm;45943;53.148;8.204;2023-08-17T13:42:25;51.74;41.31;68.05;;
49215;Laerm;45943;53.148;8.204;2023-08-17T13:44:51;52.65;40.78;66.22;;
49215;Laerm;45943;53.148;8.204;2023-08-17T13:47:17;50.84;42.06;68.62;;
49215;Laerm;45943;53.148;8.204;2023-08-17T13:49:43;52.39;41.40;66.71;;